Alyeska Resort Wx Sites
Hourly Roundup from Summit Site
ALYSUM 11/27/2014
Click Here to View Graph!

        DATE  TIME   Air  Wind  Wind  Wind   Rel  BATT Solar
                    Temp   Spd   Dir  Gust  Hum%  Volt Watts
                      F   AVG   AVG   MAX   AVG   AVG    M

  11/27/2014 11:00    24     1    67     5    39 12.90 12.48
  11/27/2014 10:00    25     1    61     5    33 12.77  3.80
  11/27/2014 09:00    24     0   124     2    32 12.77  0.05
  11/27/2014 08:00    25     2    97     5    30 12.79  0.00
  11/27/2014 07:00    26     3    73     9    29 12.81  0.00
  11/27/2014 06:00    25     3    50     8    30 12.83  0.00
  11/27/2014 05:00    24     2    77     6    36 12.86  0.00
  11/27/2014 04:00    22     1   175     3    50 12.87  0.00
  11/27/2014 03:00    22     1   187     6    53 12.90  0.00
  11/27/2014 02:00    22     2    36     6    56 12.92  0.00
  11/27/2014 01:00    20     2    83     6    65 12.94  0.00
  11/26/2014 24:00    21     3    45     6    62 12.96  0.00
  11/26/2014 23:00    20     2   152     7    71 12.98  0.00
  11/26/2014 22:00    19     2   126     7    82 13.01  0.00
  11/26/2014 21:00    19     3   347    12    84 13.04  0.00
  11/26/2014 20:00    20     5   336    13    86 13.07  0.00
  11/26/2014 19:00    18     2   213     6    97 13.12  0.00
  11/26/2014 18:00    18     3   114     5    99 13.20  0.00
  11/26/2014 17:00    18     3   140     7    98 13.41  0.71
  11/26/2014 16:00    20     2   101     6    96 14.22 19.36
  11/26/2014 15:00    21     3   172     6    93 14.99 91.50
  11/26/2014 14:00    22     2   250     4    92 14.99152.00
  11/26/2014 13:00    22     1   120     5    94  0.00138.80
  11/26/2014 12:00    21     3   175     6    97 13.51 37.01


Click Here to View Graph!